UAL2739 KIAD-KATL
Flight info
| Callsign | UAL2739 |
|---|---|
| Flight time | 1h 17m |
| Altitude | 38000 |
| Route | CLTCH3 FLASK OZZZI2 |
| Aircraft | A319/M-SDE3FGHIRWY/LB1 |
Departure
| Time | 2026-05-03 20:15 |
|---|---|
| Airport | Washington Dulles International Airport (KIAD) |
Arrival
| Time | 2026-05-03 21:33 |
|---|---|
| Airport | Hartsfield Jackson Atlanta International Airport (KATL) |
| Time | Latitude | Longitude | Altitude | Speed | Heading |
|---|---|---|---|---|---|
| 2026-05-03 20:15 | 38.83919 | -77.59007 | 7828 ft | 276 kts | 211° |
| 2026-05-03 20:15 | 38.82189 | -77.60135 | 8763 ft | 282 kts | 212° |
| 2026-05-03 20:15 | 38.80431 | -77.61292 | 9706 ft | 287 kts | 212° |
| 2026-05-03 20:15 | 38.78629 | -77.62484 | 10345 ft | 301 kts | 213° |
| 2026-05-03 20:16 | 38.76727 | -77.63744 | 10710 ft | 320 kts | 212° |
| 2026-05-03 20:16 | 38.74717 | -77.65065 | 11407 ft | 328 kts | 212° |
| 2026-05-03 20:16 | 38.72676 | -77.66395 | 12224 ft | 331 kts | 212° |
| 2026-05-03 20:16 | 38.70613 | -77.67735 | 13043 ft | 334 kts | 212° |
| 2026-05-03 20:17 | 38.68540 | -77.69084 | 13860 ft | 336 kts | 213° |
| 2026-05-03 20:17 | 38.66450 | -77.70447 | 14588 ft | 338 kts | 213° |
| 2026-05-03 20:17 | 38.64350 | -77.71819 | 15326 ft | 340 kts | 213° |
| 2026-05-03 20:17 | 38.62242 | -77.73198 | 16065 ft | 341 kts | 213° |
| 2026-05-03 20:18 | 38.60142 | -77.74569 | 16796 ft | 343 kts | 213° |
| 2026-05-03 20:18 | 38.57991 | -77.75975 | 17528 ft | 345 kts | 213° |
| 2026-05-03 20:18 | 38.55853 | -77.77373 | 18254 ft | 347 kts | 213° |
| 2026-05-03 20:18 | 38.53724 | -77.78832 | 18869 ft | 346 kts | 219° |
| 2026-05-03 20:19 | 38.51827 | -77.80690 | 19451 ft | 342 kts | 230° |
| 2026-05-03 20:19 | 38.50205 | -77.82899 | 20040 ft | 342 kts | 234° |
| 2026-05-03 20:19 | 38.48608 | -77.85163 | 20642 ft | 345 kts | 234° |
| 2026-05-03 20:19 | 38.47013 | -77.87418 | 21208 ft | 348 kts | 234° |
| 2026-05-03 20:20 | 38.45379 | -77.89717 | 21787 ft | 352 kts | 235° |
| 2026-05-03 20:20 | 38.43879 | -77.92163 | 22327 ft | 350 kts | 242° |
| 2026-05-03 20:20 | 38.42464 | -77.94716 | 22901 ft | 353 kts | 242° |
| 2026-05-03 20:20 | 38.41045 | -77.97281 | 23463 ft | 356 kts | 242° |
| 2026-05-03 20:21 | 38.39608 | -77.99882 | 23964 ft | 359 kts | 242° |
| 2026-05-03 20:21 | 38.38164 | -78.02492 | 24459 ft | 361 kts | 242° |
| 2026-05-03 20:21 | 38.36710 | -78.05109 | 24966 ft | 362 kts | 242° |
| 2026-05-03 20:21 | 38.35253 | -78.07729 | 25464 ft | 363 kts | 242° |
| 2026-05-03 20:22 | 38.33792 | -78.10357 | 25964 ft | 364 kts | 243° |
| 2026-05-03 20:22 | 38.32324 | -78.12998 | 26466 ft | 365 kts | 243° |
| 2026-05-03 20:22 | 38.30854 | -78.15638 | 26944 ft | 366 kts | 242° |
| 2026-05-03 20:22 | 38.29376 | -78.18286 | 27436 ft | 368 kts | 242° |
| 2026-05-03 20:23 | 38.27891 | -78.20943 | 27909 ft | 369 kts | 242° |
| 2026-05-03 20:23 | 38.26402 | -78.23608 | 28375 ft | 370 kts | 242° |
| 2026-05-03 20:23 | 38.24906 | -78.26285 | 28848 ft | 372 kts | 242° |
| 2026-05-03 20:23 | 38.23407 | -78.28968 | 29321 ft | 373 kts | 242° |
| 2026-05-03 20:24 | 38.21899 | -78.31663 | 29781 ft | 375 kts | 242° |
| 2026-05-03 20:24 | 38.20383 | -78.34369 | 30217 ft | 376 kts | 242° |
| 2026-05-03 20:24 | 38.18869 | -78.37073 | 30575 ft | 378 kts | 242° |
| 2026-05-03 20:24 | 38.17336 | -78.39806 | 30923 ft | 380 kts | 242° |
| 2026-05-03 20:25 | 38.15770 | -78.42521 | 31261 ft | 382 kts | 241° |
| 2026-05-03 20:25 | 38.14166 | -78.45223 | 31583 ft | 385 kts | 240° |
| 2026-05-03 20:25 | 38.12537 | -78.47925 | 31903 ft | 387 kts | 240° |
| 2026-05-03 20:25 | 38.10890 | -78.50639 | 32252 ft | 387 kts | 240° |
| 2026-05-03 20:26 | 38.09246 | -78.53343 | 32705 ft | 386 kts | 240° |
| 2026-05-03 20:26 | 38.07614 | -78.56032 | 33189 ft | 384 kts | 240° |
| 2026-05-03 20:26 | 38.05996 | -78.58711 | 33661 ft | 382 kts | 241° |
| 2026-05-03 20:26 | 38.04389 | -78.61383 | 34112 ft | 380 kts | 241° |
| 2026-05-03 20:27 | 38.02794 | -78.64050 | 34481 ft | 379 kts | 241° |
| 2026-05-03 20:27 | 38.01200 | -78.66716 | 34805 ft | 379 kts | 240° |
| 2026-05-03 20:27 | 37.99602 | -78.69380 | 35128 ft | 379 kts | 240° |
| 2026-05-03 20:27 | 37.98002 | -78.72043 | 35422 ft | 380 kts | 240° |
| 2026-05-03 20:28 | 37.96399 | -78.74707 | 35721 ft | 380 kts | 239° |
| 2026-05-03 20:28 | 37.94794 | -78.77369 | 36016 ft | 380 kts | 239° |
| 2026-05-03 20:28 | 37.93187 | -78.80037 | 36313 ft | 380 kts | 239° |
| 2026-05-03 20:28 | 37.91580 | -78.82699 | 36600 ft | 381 kts | 239° |
| 2026-05-03 20:29 | 37.89968 | -78.85363 | 36877 ft | 381 kts | 239° |
| 2026-05-03 20:29 | 37.88379 | -78.87991 | 37149 ft | 381 kts | 239° |
| 2026-05-03 20:29 | 37.86769 | -78.90651 | 37411 ft | 381 kts | 238° |
| 2026-05-03 20:29 | 37.85157 | -78.93313 | 37673 ft | 381 kts | 238° |
| 2026-05-03 20:30 | 37.83544 | -78.95974 | 37932 ft | 381 kts | 238° |
| 2026-05-03 20:30 | 37.81927 | -78.98637 | 38059 ft | 381 kts | 238° |
| 2026-05-03 20:30 | 37.80315 | -79.01294 | 38079 ft | 380 kts | 238° |
| 2026-05-03 20:31 | 37.77097 | -79.06584 | 38083 ft | 379 kts | 238° |
| 2026-05-03 20:31 | 37.73873 | -79.11865 | 38081 ft | 379 kts | 238° |
| 2026-05-03 20:32 | 37.70661 | -79.17127 | 38080 ft | 378 kts | 238° |
| 2026-05-03 20:32 | 37.67467 | -79.22383 | 38077 ft | 377 kts | 238° |
| 2026-05-03 20:33 | 37.64336 | -79.27679 | 38078 ft | 376 kts | 239° |
| 2026-05-03 20:33 | 37.61237 | -79.32949 | 38084 ft | 376 kts | 239° |
| 2026-05-03 20:34 | 37.58104 | -79.38237 | 38089 ft | 376 kts | 239° |
| 2026-05-03 20:34 | 37.54962 | -79.43510 | 38096 ft | 376 kts | 239° |
| 2026-05-03 20:35 | 37.51819 | -79.48782 | 38101 ft | 376 kts | 238° |
| 2026-05-03 20:35 | 37.48672 | -79.54054 | 38102 ft | 376 kts | 238° |
| 2026-05-03 20:36 | 37.45521 | -79.59326 | 38115 ft | 376 kts | 238° |
| 2026-05-03 20:36 | 37.42378 | -79.64574 | 38112 ft | 375 kts | 238° |
| 2026-05-03 20:37 | 37.39252 | -79.69785 | 38119 ft | 375 kts | 238° |
| 2026-05-03 20:37 | 37.36109 | -79.75014 | 38115 ft | 374 kts | 238° |
| 2026-05-03 20:38 | 37.32969 | -79.80222 | 38115 ft | 373 kts | 238° |
| 2026-05-03 20:38 | 37.29834 | -79.85432 | 38118 ft | 373 kts | 238° |
| 2026-05-03 20:39 | 37.26701 | -79.90628 | 38135 ft | 373 kts | 238° |
| 2026-05-03 20:39 | 37.23571 | -79.95803 | 38114 ft | 372 kts | 238° |
| 2026-05-03 20:40 | 37.20443 | -80.00975 | 38113 ft | 371 kts | 238° |
| 2026-05-03 20:40 | 37.17311 | -80.06129 | 38120 ft | 371 kts | 238° |
| 2026-05-03 20:41 | 37.14204 | -80.11241 | 38119 ft | 371 kts | 238° |
| 2026-05-03 20:41 | 37.11083 | -80.16377 | 38127 ft | 370 kts | 238° |
| 2026-05-03 20:42 | 37.07959 | -80.21506 | 38123 ft | 370 kts | 238° |
| 2026-05-03 20:42 | 37.04832 | -80.26616 | 38126 ft | 370 kts | 238° |
| 2026-05-03 20:43 | 37.01678 | -80.31704 | 38125 ft | 371 kts | 234° |
| 2026-05-03 20:43 | 36.98065 | -80.36381 | 38122 ft | 373 kts | 232° |
| 2026-05-03 20:44 | 36.94437 | -80.41022 | 38116 ft | 373 kts | 232° |
| 2026-05-03 20:44 | 36.90820 | -80.45660 | 38104 ft | 372 kts | 232° |
| 2026-05-03 20:45 | 36.87807 | -80.49508 | 38101 ft | 373 kts | 232° |
| 2026-05-03 20:45 | 36.83570 | -80.54911 | 38094 ft | 372 kts | 232° |
| 2026-05-03 20:46 | 36.80551 | -80.58750 | 38091 ft | 372 kts | 232° |
| 2026-05-03 20:46 | 36.76920 | -80.63366 | 38088 ft | 372 kts | 232° |
| 2026-05-03 20:47 | 36.73294 | -80.67977 | 38091 ft | 372 kts | 232° |
| 2026-05-03 20:47 | 36.69665 | -80.72579 | 38089 ft | 372 kts | 232° |
| 2026-05-03 20:48 | 36.66036 | -80.77173 | 38088 ft | 372 kts | 232° |
| 2026-05-03 20:48 | 36.62401 | -80.81765 | 38084 ft | 372 kts | 232° |
| 2026-05-03 20:49 | 36.58766 | -80.86354 | 38090 ft | 372 kts | 232° |
| 2026-05-03 20:49 | 36.55135 | -80.90933 | 38081 ft | 372 kts | 232° |
| 2026-05-03 20:50 | 36.51498 | -80.95510 | 38081 ft | 372 kts | 232° |
| 2026-05-03 20:50 | 36.47865 | -81.00085 | 38094 ft | 372 kts | 232° |
| 2026-05-03 20:51 | 36.44226 | -81.04650 | 38097 ft | 372 kts | 232° |
| 2026-05-03 20:51 | 36.40586 | -81.09212 | 38098 ft | 372 kts | 231° |
| 2026-05-03 20:52 | 36.36943 | -81.13774 | 38105 ft | 372 kts | 232° |
| 2026-05-03 20:52 | 36.33297 | -81.18329 | 38110 ft | 372 kts | 231° |
| 2026-05-03 20:53 | 36.29644 | -81.22884 | 38110 ft | 372 kts | 231° |
| 2026-05-03 20:53 | 36.25998 | -81.27451 | 38109 ft | 372 kts | 232° |
| 2026-05-03 20:54 | 36.22358 | -81.32003 | 38104 ft | 372 kts | 231° |
| 2026-05-03 20:54 | 36.16870 | -81.38831 | 38091 ft | 372 kts | 231° |
| 2026-05-03 20:55 | 36.13215 | -81.43369 | 38080 ft | 372 kts | 231° |
| 2026-05-03 20:55 | 36.09563 | -81.47903 | 38076 ft | 372 kts | 231° |
| 2026-05-03 20:56 | 36.05901 | -81.52439 | 38086 ft | 372 kts | 231° |
| 2026-05-03 20:56 | 36.02245 | -81.56966 | 38095 ft | 372 kts | 231° |
| 2026-05-03 20:57 | 35.98587 | -81.61488 | 38098 ft | 372 kts | 231° |
| 2026-05-03 20:57 | 35.94925 | -81.66011 | 38110 ft | 372 kts | 231° |
| 2026-05-03 20:58 | 35.91267 | -81.70525 | 38111 ft | 372 kts | 231° |
| 2026-05-03 20:58 | 35.87603 | -81.75032 | 38105 ft | 372 kts | 231° |
| 2026-05-03 20:59 | 35.83940 | -81.79538 | 38100 ft | 372 kts | 231° |
| 2026-05-03 20:59 | 35.80268 | -81.84037 | 38093 ft | 372 kts | 231° |
| 2026-05-03 21:00 | 35.77177 | -81.87799 | 38087 ft | 373 kts | 230° |
| 2026-05-03 21:00 | 35.72854 | -81.92981 | 38084 ft | 373 kts | 230° |
| 2026-05-03 21:01 | 35.69127 | -81.97423 | 38077 ft | 373 kts | 230° |
| 2026-05-03 21:01 | 35.65397 | -82.01868 | 38084 ft | 373 kts | 230° |
| 2026-05-03 21:02 | 35.61671 | -82.06312 | 38095 ft | 373 kts | 230° |
| 2026-05-03 21:02 | 35.57941 | -82.10757 | 38095 ft | 374 kts | 230° |
| 2026-05-03 21:03 | 35.54205 | -82.15203 | 38099 ft | 373 kts | 230° |
| 2026-05-03 21:03 | 35.50473 | -82.19637 | 38098 ft | 373 kts | 230° |
| 2026-05-03 21:04 | 35.46744 | -82.24065 | 38093 ft | 373 kts | 230° |
| 2026-05-03 21:04 | 35.43005 | -82.28498 | 38093 ft | 373 kts | 230° |
| 2026-05-03 21:05 | 35.39321 | -82.32974 | 38094 ft | 372 kts | 231° |
| 2026-05-03 21:05 | 35.35707 | -82.37502 | 38094 ft | 371 kts | 231° |
| 2026-05-03 21:06 | 35.32094 | -82.42028 | 38092 ft | 372 kts | 231° |
| 2026-05-03 21:06 | 35.28467 | -82.46535 | 38089 ft | 372 kts | 231° |
| 2026-05-03 21:07 | 35.24832 | -82.51039 | 38086 ft | 372 kts | 231° |
| 2026-05-03 21:07 | 35.21187 | -82.55544 | 38082 ft | 373 kts | 230° |
| 2026-05-03 21:08 | 35.17530 | -82.60053 | 38103 ft | 376 kts | 230° |
| 2026-05-03 21:08 | 35.13774 | -82.64642 | 38107 ft | 387 kts | 229° |
| 2026-05-03 21:09 | 35.09854 | -82.69287 | 38102 ft | 394 kts | 229° |
| 2026-05-03 21:09 | 35.05935 | -82.73883 | 38105 ft | 388 kts | 229° |
| 2026-05-03 21:10 | 35.02066 | -82.78461 | 38106 ft | 387 kts | 229° |
| 2026-05-03 21:10 | 34.98202 | -82.83037 | 37928 ft | 386 kts | 229° |
| 2026-05-03 21:11 | 34.96273 | -82.85315 | 37340 ft | 387 kts | 229° |
| 2026-05-03 21:11 | 34.94319 | -82.87627 | 36376 ft | 395 kts | 229° |
| 2026-05-03 21:11 | 34.92327 | -82.89979 | 35492 ft | 402 kts | 229° |
| 2026-05-03 21:11 | 34.90291 | -82.92360 | 34624 ft | 408 kts | 228° |
| 2026-05-03 21:12 | 34.88221 | -82.94759 | 33712 ft | 414 kts | 228° |
| 2026-05-03 21:12 | 34.86118 | -82.97186 | 32719 ft | 419 kts | 227° |
| 2026-05-03 21:12 | 34.83985 | -82.99641 | 31718 ft | 424 kts | 227° |
| 2026-05-03 21:12 | 34.81834 | -83.02116 | 30719 ft | 429 kts | 227° |
| 2026-05-03 21:13 | 34.79653 | -83.04629 | 29625 ft | 434 kts | 227° |
| 2026-05-03 21:13 | 34.77462 | -83.07154 | 28670 ft | 434 kts | 227° |
| 2026-05-03 21:13 | 34.75278 | -83.09672 | 27864 ft | 431 kts | 227° |
| 2026-05-03 21:13 | 34.73110 | -83.12170 | 27106 ft | 427 kts | 227° |
| 2026-05-03 21:14 | 34.70966 | -83.14638 | 26367 ft | 423 kts | 227° |
| 2026-05-03 21:14 | 34.68837 | -83.17088 | 25639 ft | 419 kts | 227° |
| 2026-05-03 21:14 | 34.66729 | -83.19513 | 24944 ft | 416 kts | 227° |
| 2026-05-03 21:14 | 34.64635 | -83.21920 | 24355 ft | 414 kts | 227° |
| 2026-05-03 21:15 | 34.62539 | -83.24329 | 24153 ft | 415 kts | 227° |
| 2026-05-03 21:15 | 34.60447 | -83.26730 | 24093 ft | 415 kts | 227° |
| 2026-05-03 21:15 | 34.58343 | -83.29138 | 24110 ft | 416 kts | 226° |
| 2026-05-03 21:15 | 34.56241 | -83.31542 | 23951 ft | 416 kts | 226° |
| 2026-05-03 21:16 | 34.54141 | -83.33944 | 23642 ft | 414 kts | 227° |
| 2026-05-03 21:16 | 34.52051 | -83.36347 | 23244 ft | 412 kts | 227° |
| 2026-05-03 21:16 | 34.49976 | -83.38740 | 22652 ft | 409 kts | 227° |
| 2026-05-03 21:16 | 34.47923 | -83.41106 | 22071 ft | 406 kts | 226° |
| 2026-05-03 21:17 | 34.45882 | -83.43455 | 21500 ft | 403 kts | 226° |
| 2026-05-03 21:17 | 34.44538 | -83.44998 | 21133 ft | 402 kts | 226° |
| 2026-05-03 21:17 | 34.41835 | -83.48102 | 20396 ft | 398 kts | 226° |
| 2026-05-03 21:17 | 34.39829 | -83.50400 | 19859 ft | 396 kts | 226° |
| 2026-05-03 21:18 | 34.37834 | -83.52684 | 19331 ft | 393 kts | 226° |
| 2026-05-03 21:18 | 34.35856 | -83.54950 | 18814 ft | 391 kts | 226° |
| 2026-05-03 21:18 | 34.33883 | -83.57204 | 18287 ft | 389 kts | 226° |
| 2026-05-03 21:18 | 34.31920 | -83.59442 | 17705 ft | 386 kts | 226° |
| 2026-05-03 21:19 | 34.29965 | -83.61669 | 17129 ft | 384 kts | 226° |
| 2026-05-03 21:19 | 34.28048 | -83.63839 | 16569 ft | 381 kts | 225° |
| 2026-05-03 21:19 | 34.26084 | -83.65979 | 16012 ft | 379 kts | 224° |
| 2026-05-03 21:19 | 34.24106 | -83.68076 | 15470 ft | 377 kts | 224° |
| 2026-05-03 21:20 | 34.22128 | -83.70151 | 14932 ft | 375 kts | 223° |
| 2026-05-03 21:20 | 34.20166 | -83.72208 | 14409 ft | 373 kts | 223° |
| 2026-05-03 21:20 | 34.18218 | -83.74261 | 13890 ft | 371 kts | 223° |
| 2026-05-03 21:20 | 34.16284 | -83.76304 | 13309 ft | 368 kts | 223° |
| 2026-05-03 21:21 | 34.14364 | -83.78337 | 12734 ft | 366 kts | 224° |
| 2026-05-03 21:21 | 34.12456 | -83.80362 | 12201 ft | 364 kts | 224° |
| 2026-05-03 21:21 | 34.10559 | -83.82378 | 12005 ft | 363 kts | 224° |
| 2026-05-03 21:21 | 34.08722 | -83.84328 | 12007 ft | 341 kts | 224° |
| 2026-05-03 21:22 | 34.06996 | -83.86168 | 12010 ft | 322 kts | 224° |
| 2026-05-03 21:22 | 34.05287 | -83.87800 | 11959 ft | 309 kts | 214° |
| 2026-05-03 21:22 | 34.03408 | -83.89015 | 11703 ft | 303 kts | 210° |
| 2026-05-03 21:22 | 34.01561 | -83.90176 | 11452 ft | 297 kts | 210° |
| 2026-05-03 21:23 | 34.00345 | -83.90937 | 11291 ft | 296 kts | 210° |
| 2026-05-03 21:23 | 33.98521 | -83.92077 | 11046 ft | 295 kts | 210° |
| 2026-05-03 21:23 | 33.96113 | -83.93583 | 10715 ft | 294 kts | 210° |
| 2026-05-03 21:23 | 33.94312 | -83.94708 | 10484 ft | 289 kts | 210° |
| 2026-05-03 21:24 | 33.92539 | -83.95819 | 10244 ft | 285 kts | 210° |
| 2026-05-03 21:24 | 33.91358 | -83.96561 | 10084 ft | 282 kts | 210° |
| 2026-05-03 21:24 | 33.89634 | -83.97641 | 9895 ft | 276 kts | 210° |
| 2026-05-03 21:24 | 33.87956 | -83.98688 | 9756 ft | 268 kts | 210° |
| 2026-05-03 21:25 | 33.86326 | -83.99704 | 9625 ft | 260 kts | 210° |
| 2026-05-03 21:25 | 33.84740 | -84.00694 | 9495 ft | 253 kts | 210° |
| 2026-05-03 21:25 | 33.83196 | -84.01658 | 9322 ft | 248 kts | 211° |
| 2026-05-03 21:25 | 33.81626 | -84.02641 | 8761 ft | 260 kts | 210° |
| 2026-05-03 21:26 | 33.80011 | -84.03648 | 8390 ft | 263 kts | 210° |
| 2026-05-03 21:26 | 33.78378 | -84.04665 | 8061 ft | 265 kts | 210° |
| 2026-05-03 21:26 | 33.76737 | -84.05689 | 7722 ft | 267 kts | 210° |
| 2026-05-03 21:26 | 33.75086 | -84.06718 | 7404 ft | 268 kts | 210° |
| 2026-05-03 21:27 | 33.73430 | -84.07747 | 7077 ft | 268 kts | 210° |
| 2026-05-03 21:27 | 33.71772 | -84.08778 | 6745 ft | 269 kts | 210° |
| 2026-05-03 21:27 | 33.70103 | -84.09817 | 6409 ft | 270 kts | 210° |
| 2026-05-03 21:27 | 33.68438 | -84.10852 | 6064 ft | 271 kts | 210° |
| 2026-05-03 21:28 | 33.66770 | -84.11896 | 5731 ft | 269 kts | 211° |
| 2026-05-03 21:28 | 33.65423 | -84.13376 | 5429 ft | 261 kts | 241° |
| 2026-05-03 21:28 | 33.64922 | -84.15373 | 5165 ft | 246 kts | 269° |
| 2026-05-03 21:28 | 33.64917 | -84.17401 | 4848 ft | 240 kts | 271° |
| 2026-05-03 21:29 | 33.64932 | -84.19374 | 4541 ft | 233 kts | 271° |
| 2026-05-03 21:29 | 33.64937 | -84.21305 | 4222 ft | 230 kts | 271° |
| 2026-05-03 21:29 | 33.64940 | -84.23213 | 3912 ft | 226 kts | 271° |
| 2026-05-03 21:29 | 33.64942 | -84.25062 | 3616 ft | 218 kts | 271° |
| 2026-05-03 21:30 | 33.64945 | -84.26864 | 3325 ft | 215 kts | 271° |
| 2026-05-03 21:30 | 33.64947 | -84.28598 | 3057 ft | 206 kts | 271° |
| 2026-05-03 21:30 | 33.64948 | -84.30289 | 2796 ft | 200 kts | 271° |
| 2026-05-03 21:30 | 33.64949 | -84.31932 | 2524 ft | 194 kts | 271° |
| 2026-05-03 21:31 | 33.64951 | -84.33547 | 2257 ft | 192 kts | 271° |
| 2026-05-03 21:31 | 33.64952 | -84.35117 | 2013 ft | 185 kts | 271° |
| 2026-05-03 21:31 | 33.64952 | -84.36606 | 1763 ft | 171 kts | 270° |
| 2026-05-03 21:31 | 33.64952 | -84.37931 | 1538 ft | 147 kts | 271° |
| 2026-05-03 21:32 | 33.64950 | -84.39077 | 1240 ft | 132 kts | 270° |
| 2026-05-03 21:32 | 33.64961 | -84.40147 | 1144 ft | 127 kts | 269° |
| 2026-05-03 21:32 | 33.64954 | -84.41189 | 1047 ft | 123 kts | 269° |
| 2026-05-03 21:32 | 33.64953 | -84.42086 | 1036 ft | 94 kts | 270° |
| 2026-05-03 21:33 | 33.64948 | -84.42575 | 1036 ft | 34 kts | 261° |
| 2026-05-03 21:33 | 33.64884 | -84.42781 | 1035 ft | 17 kts | 241° |
| 2026-05-03 21:33 | 33.64862 | -84.42828 | 1035 ft | 10 kts | 241° |
| 2026-05-03 21:33 | 33.64802 | -84.42881 | 1036 ft | 12 kts | 189° |
| 2026-05-03 21:34 | 33.64712 | -84.42880 | 1037 ft | 13 kts | 181° |
| 2026-05-03 21:34 | 33.64626 | -84.42846 | 1036 ft | 13 kts | 156° |
| 2026-05-03 21:34 | 33.64594 | -84.42827 | 1036 ft | 2 kts | 154° |
| 2026-05-03 21:34 | 33.64574 | -84.42819 | 1036 ft | 5 kts | 173° |
| 2026-05-03 21:35 | 33.64546 | -84.42861 | 1036 ft | 8 kts | 249° |
| 2026-05-03 21:35 | 33.64542 | -84.42938 | 1036 ft | 11 kts | 270° |
| 2026-05-03 21:35 | 33.64543 | -84.43038 | 1036 ft | 13 kts | 270° |
| 2026-05-03 21:35 | 33.64543 | -84.43159 | 1036 ft | 16 kts | 270° |
| 2026-05-03 21:36 | 33.64542 | -84.43301 | 1036 ft | 17 kts | 270° |
| 2026-05-03 21:36 | 33.64542 | -84.43431 | 1036 ft | 16 kts | 270° |
| 2026-05-03 21:36 | 33.64542 | -84.43581 | 1036 ft | 19 kts | 270° |
| 2026-05-03 21:36 | 33.64535 | -84.43753 | 1035 ft | 22 kts | 262° |
| 2026-05-03 21:37 | 33.64510 | -84.43947 | 1035 ft | 25 kts | 261° |
| 2026-05-03 21:37 | 33.64474 | -84.44087 | 1035 ft | 16 kts | 227° |
| 2026-05-03 21:37 | 33.64360 | -84.44118 | 1035 ft | 19 kts | 177° |
| 2026-05-03 21:37 | 33.64306 | -84.44117 | 1035 ft | 4 kts | 180° |
| 2026-05-03 21:38 | 33.64275 | -84.44128 | 1035 ft | 5 kts | 220° |
| 2026-05-03 21:38 | 33.64288 | -84.44156 | 1035 ft | 4 kts | 329° |
| 2026-05-03 21:38 | 33.64301 | -84.44179 | 1035 ft | 1 kts | 286° |
| 2026-05-03 21:38 | 33.64305 | -84.44195 | 1035 ft | 0 kts | 285° |